createdAt,value
2022-12-26T00:01:20.406Z,71.23
2022-12-26T00:03:23.690Z,71.13
2022-12-26T00:05:27.660Z,70.94
2022-12-26T00:07:30.201Z,70.84
2022-12-26T00:09:33.463Z,70.92
2022-12-26T00:11:37.113Z,71.33
2022-12-26T00:13:41.759Z,71.20
2022-12-26T00:15:44.734Z,71.17
2022-12-26T00:17:47.341Z,70.86
2022-12-26T00:19:49.934Z,70.38
2022-12-26T00:21:53.853Z,70.95
2022-12-26T00:23:57.757Z,71.32
2022-12-26T00:26:04.143Z,70.98
2022-12-26T00:28:06.743Z,70.80
2022-12-26T00:30:10.860Z,71.40
2022-12-26T00:32:13.436Z,71.16
2022-12-26T00:34:16.587Z,71.91
2022-12-26T00:36:21.047Z,71.78
2022-12-26T00:38:25.004Z,71.81
2022-12-26T00:40:27.591Z,72.02
2022-12-26T00:42:30.131Z,71.92
2022-12-26T00:44:32.715Z,72.45
2022-12-26T00:46:35.347Z,72.32
2022-12-26T00:48:38.376Z,72.63
2022-12-26T00:50:41.020Z,72.00
2022-12-26T00:52:44.093Z,72.19
2022-12-26T00:54:48.035Z,71.87
2022-12-26T00:56:50.577Z,71.35
2022-12-26T00:58:53.472Z,71.29
2022-12-26T01:00:57.020Z,71.26
2022-12-26T01:02:59.774Z,71.05
2022-12-26T01:05:02.408Z,71.28
2022-12-26T01:07:04.970Z,71.03
2022-12-26T01:09:07.575Z,71.74
2022-12-26T01:11:13.909Z,71.80
2022-12-26T01:13:15.930Z,71.70
2022-12-26T01:15:19.067Z,72.21
2022-12-26T01:17:21.709Z,72.42
2022-12-26T01:19:24.362Z,72.63
2022-12-26T01:21:27.009Z,72.20
2022-12-26T01:23:30.051Z,72.54
2022-12-26T01:25:32.620Z,72.21
2022-12-26T01:27:36.523Z,72.27
2022-12-26T01:29:39.097Z,72.18
2022-12-26T01:31:41.715Z,72.23
2022-12-26T01:33:44.373Z,72.16
2022-12-26T01:35:52.152Z,71.82
2022-12-26T01:37:56.118Z,72.01
2022-12-26T01:39:58.735Z,71.32
2022-12-26T01:42:01.331Z,71.31
2022-12-26T01:44:07.869Z,71.69
2022-12-26T01:46:10.534Z,71.30
2022-12-26T01:48:21.457Z,71.47
2022-12-26T01:50:33.089Z,71.42
2022-12-26T01:52:39.537Z,71.54
2022-12-26T01:54:46.922Z,71.04
2022-12-26T01:56:49.773Z,71.40
2022-12-26T01:58:57.110Z,71.51
2022-12-26T02:01:03.728Z,71.45
2022-12-26T02:03:26.531Z,70.91
2022-12-26T02:05:36.670Z,70.41
2022-12-26T02:07:41.477Z,70.81
2022-12-26T02:09:44.178Z,70.59
2022-12-26T02:12:35.369Z,70.51
2022-12-26T02:14:16.287Z,70.22
2022-12-26T02:16:20.899Z,70.14
2022-12-26T02:18:23.520Z,70.05
2022-12-26T02:20:28.997Z,70.35
2022-12-26T02:22:52.332Z,69.81
2022-12-26T02:25:27.227Z,70.08
2022-12-26T02:27:42.072Z,70.02
2022-12-26T02:30:12.369Z,69.85
2022-12-26T02:32:22.548Z,69.37
2022-12-26T02:34:36.802Z,69.63
2022-12-26T02:36:53.485Z,70.25
2022-12-26T02:39:43.800Z,70.13
2022-12-26T02:41:44.861Z,70.54
2022-12-26T02:43:58.427Z,70.04
2022-12-26T02:46:29.300Z,70.21
2022-12-26T02:48:44.553Z,69.97
2022-12-26T02:51:19.068Z,70.20
2022-12-26T02:53:47.846Z,70.46
2022-12-26T02:56:12.915Z,70.64
2022-12-26T02:58:39.071Z,70.94
2022-12-26T03:01:03.524Z,70.63
2022-12-26T03:03:29.567Z,70.24
2022-12-26T03:05:55.480Z,70.58
2022-12-26T03:08:17.656Z,70.90
2022-12-26T03:10:42.117Z,70.91
2022-12-26T03:13:05.706Z,70.58
2022-12-26T03:15:11.538Z,70.43
2022-12-26T03:17:27.015Z,70.52
2022-12-26T03:19:33.158Z,70.95
2022-12-26T03:21:42.556Z,70.78
2022-12-26T03:23:47.438Z,70.79
2022-12-26T03:26:13.368Z,71.17
2022-12-26T03:28:16.091Z,71.02
2022-12-26T03:30:36.369Z,70.86
2022-12-26T03:32:44.506Z,71.10
2022-12-26T03:34:46.148Z,71.13
2022-12-26T03:36:56.865Z,71.27
2022-12-26T03:39:09.869Z,71.37
2022-12-26T03:41:39.734Z,71.26
2022-12-26T03:44:13.750Z,71.71
2022-12-26T03:46:40.566Z,71.48
2022-12-26T03:49:09.504Z,71.70
2022-12-26T03:51:39.244Z,71.52
2022-12-26T03:54:08.850Z,71.33
2022-12-26T03:56:35.229Z,71.37
2022-12-26T03:59:00.124Z,71.43
2022-12-26T04:01:26.172Z,71.46
2022-12-26T04:03:49.637Z,71.45
2022-12-26T04:06:12.249Z,71.24
2022-12-26T04:08:38.398Z,71.01
2022-12-26T04:11:04.088Z,70.80
2022-12-26T04:13:37.535Z,70.88
2022-12-26T04:16:02.450Z,70.84
2022-12-26T04:18:27.847Z,71.52
2022-12-26T04:20:36.219Z,71.13
2022-12-26T04:23:01.891Z,70.91
2022-12-26T04:25:49.439Z,71.11
2022-12-26T04:28:12.358Z,71.14
2022-12-26T04:30:32.701Z,71.41
2022-12-26T04:32:57.096Z,71.59
2022-12-26T04:35:27.820Z,70.89
2022-12-26T04:37:50.332Z,71.00
2022-12-26T04:40:15.423Z,71.11
2022-12-26T04:42:37.190Z,71.30
2022-12-26T04:44:41.556Z,71.09
2022-12-26T04:46:46.383Z,71.11
2022-12-26T04:49:09.316Z,70.80
2022-12-26T04:51:10.956Z,71.01
2022-12-26T04:53:15.661Z,70.92
2022-12-26T04:55:17.837Z,70.49
2022-12-26T04:57:20.753Z,70.51
2022-12-26T04:59:23.938Z,70.10
2022-12-26T05:01:45.255Z,70.01
2022-12-26T05:04:05.601Z,69.93
2022-12-26T05:06:28.237Z,70.09
2022-12-26T05:08:52.922Z,69.60
2022-12-26T05:10:55.560Z,69.43
2022-12-26T05:12:58.079Z,69.18
2022-12-26T05:15:00.813Z,68.71
2022-12-26T05:17:22.627Z,68.16
2022-12-26T05:19:43.048Z,68.31
2022-12-26T05:22:03.125Z,68.28
2022-12-26T05:24:23.666Z,68.39
2022-12-26T05:26:44.127Z,68.33
2022-12-26T05:28:50.255Z,67.85
2022-12-26T05:30:52.904Z,67.55
2022-12-26T05:33:14.199Z,67.45
2022-12-26T05:35:16.845Z,67.40
2022-12-26T05:37:19.415Z,67.60
2022-12-26T05:39:21.987Z,67.81
2022-12-26T05:41:25.172Z,68.07
2022-12-26T05:43:27.772Z,68.02
2022-12-26T05:45:30.357Z,67.98
2022-12-26T05:47:32.971Z,67.78
2022-12-26T05:49:36.961Z,67.35
2022-12-26T05:51:39.563Z,67.57
2022-12-26T05:53:42.254Z,67.56
2022-12-26T05:55:44.840Z,67.92
2022-12-26T05:57:47.470Z,67.77
2022-12-26T05:59:50.050Z,67.70
2022-12-26T06:01:52.735Z,67.50
2022-12-26T06:03:57.513Z,67.46
2022-12-26T06:06:01.433Z,67.98
2022-12-26T06:08:04.104Z,67.90
2022-12-26T06:10:07.722Z,68.00
2022-12-26T06:12:10.285Z,68.55
2022-12-26T06:14:12.888Z,68.69
2022-12-26T06:16:17.777Z,68.69
2022-12-26T06:18:21.090Z,68.75
2022-12-26T06:20:23.736Z,69.09
2022-12-26T06:22:29.838Z,68.87
2022-12-26T06:24:32.440Z,68.98
2022-12-26T06:26:34.993Z,68.65
2022-12-26T06:28:38.330Z,68.38
2022-12-26T06:30:40.933Z,67.62
2022-12-26T06:32:43.499Z,67.73
2022-12-26T06:34:46.091Z,67.55
2022-12-26T06:36:48.672Z,67.59
2022-12-26T06:38:53.801Z,66.91
2022-12-26T06:40:56.363Z,67.03
2022-12-26T06:42:58.942Z,67.25
2022-12-26T06:45:01.515Z,66.78
2022-12-26T06:47:04.174Z,66.46
2022-12-26T06:49:07.488Z,66.92
2022-12-26T06:51:12.825Z,67.01
2022-12-26T06:53:15.458Z,66.84
2022-12-26T06:55:19.423Z,66.88
2022-12-26T06:57:21.967Z,67.53
2022-12-26T06:59:24.693Z,67.44
2022-12-26T07:01:28.410Z,67.01
2022-12-26T07:03:31.118Z,67.17
2022-12-26T07:05:37.028Z,67.34
2022-12-26T07:07:39.620Z,67.23
2022-12-26T07:09:42.206Z,67.38
2022-12-26T07:11:47.882Z,67.29
2022-12-26T07:13:50.530Z,67.38
2022-12-26T07:15:53.245Z,67.11
2022-12-26T07:17:56.467Z,67.57
2022-12-26T07:19:59.075Z,67.91
2022-12-26T07:22:01.663Z,68.05
2022-12-26T07:24:04.500Z,68.69
2022-12-26T07:26:07.689Z,68.35
2022-12-26T07:28:11.603Z,67.80
2022-12-26T07:30:14.572Z,67.62
2022-12-26T07:32:17.168Z,67.89
2022-12-26T07:34:19.738Z,67.97
2022-12-26T07:36:23.564Z,67.75
2022-12-26T07:38:26.188Z,68.12
2022-12-26T07:40:29.264Z,68.03
2022-12-26T07:42:31.915Z,68.02
2022-12-26T07:44:36.125Z,68.24
2022-12-26T07:46:38.985Z,67.86
2022-12-26T07:48:41.634Z,67.96
2022-12-26T07:50:47.111Z,68.00
2022-12-26T07:52:49.744Z,67.35
2022-12-26T07:54:52.310Z,67.88
2022-12-26T07:57:09.065Z,68.01
2022-12-26T07:59:20.148Z,67.94
2022-12-26T08:01:24.152Z,67.99
2022-12-26T08:03:26.823Z,67.95
2022-12-26T08:05:29.429Z,67.72
2022-12-26T08:07:32.036Z,68.24
2022-12-26T08:09:34.579Z,68.13
2022-12-26T08:11:37.188Z,68.23
2022-12-26T08:13:39.717Z,68.20
2022-12-26T08:15:42.587Z,68.31
2022-12-26T08:17:46.511Z,68.22
2022-12-26T08:19:49.084Z,68.98
2022-12-26T08:21:51.744Z,68.80
2022-12-26T08:23:54.348Z,68.98
2022-12-26T08:25:57.599Z,68.67
2022-12-26T08:28:00.185Z,68.89
2022-12-26T08:30:02.813Z,69.18
2022-12-26T08:32:05.967Z,69.06
2022-12-26T08:34:09.915Z,69.32
2022-12-26T08:36:14.034Z,69.91
2022-12-26T08:38:16.647Z,70.04
2022-12-26T08:40:39.828Z,70.42
2022-12-26T08:42:56.176Z,70.79
2022-12-26T08:45:04.822Z,71.81
2022-12-26T08:47:07.476Z,72.75
2022-12-26T08:49:11.755Z,73.42
2022-12-26T08:51:16.617Z,73.79
2022-12-26T08:53:20.404Z,74.36
2022-12-26T08:55:22.986Z,75.05
2022-12-26T08:57:25.639Z,75.63
2022-12-26T08:59:28.278Z,76.38
2022-12-26T09:01:32.344Z,76.41
2022-12-26T09:03:35.105Z,76.89
2022-12-26T09:05:39.142Z,77.38
2022-12-26T09:07:41.896Z,77.20
2022-12-26T09:09:45.054Z,76.56
2022-12-26T09:11:47.608Z,77.23
2022-12-26T09:13:50.657Z,76.89
2022-12-26T09:15:53.235Z,77.36
2022-12-26T09:17:55.942Z,77.58
2022-12-26T09:19:59.114Z,78.15
2022-12-26T09:22:20.506Z,78.75
2022-12-26T09:24:23.153Z,78.83
2022-12-26T09:26:26.067Z,79.33
2022-12-26T09:28:28.597Z,79.72
2022-12-26T09:30:31.260Z,80.20
2022-12-26T09:32:34.802Z,80.49
2022-12-26T09:34:37.398Z,80.89
2022-12-26T09:36:40.625Z,81.00
2022-12-26T09:38:46.745Z,81.05
2022-12-26T09:41:00.503Z,81.11
2022-12-26T09:43:17.079Z,81.17
2022-12-26T09:45:28.418Z,80.66
2022-12-26T09:47:34.364Z,80.58
2022-12-26T09:49:44.218Z,80.61
2022-12-26T09:51:50.610Z,81.09
2022-12-26T09:53:56.131Z,81.58
2022-12-26T09:56:02.087Z,81.49
2022-12-26T09:58:14.313Z,81.41
2022-12-26T10:00:21.817Z,81.53
2022-12-26T10:02:27.152Z,81.47
2022-12-26T10:04:30.955Z,81.14
2022-12-26T10:06:39.507Z,82.18
2022-12-26T10:09:16.363Z,82.42
2022-12-26T10:11:31.345Z,82.96
2022-12-26T10:13:41.984Z,82.58
2022-12-26T10:15:50.055Z,82.86
2022-12-26T10:18:00.802Z,83.24
2022-12-26T10:20:21.087Z,83.77
2022-12-26T10:22:40.640Z,83.55
2022-12-26T10:24:46.841Z,82.94
2022-12-26T10:26:52.253Z,83.66
2022-12-26T10:28:59.429Z,83.79
2022-12-26T10:31:07.254Z,83.91
2022-12-26T10:33:15.648Z,84.66
2022-12-26T10:35:28.737Z,84.68
2022-12-26T10:37:36.970Z,84.69
2022-12-26T10:39:48.909Z,84.77
2022-12-26T10:41:54.619Z,83.70
2022-12-26T10:43:57.328Z,84.06
2022-12-26T10:46:27.349Z,84.26
2022-12-26T10:48:30.587Z,84.50
2022-12-26T10:50:35.928Z,84.14
2022-12-26T10:52:41.497Z,83.98
2022-12-26T10:54:48.807Z,83.74
2022-12-26T10:56:53.013Z,84.18
2022-12-26T10:59:02.061Z,85.29
2022-12-26T11:01:33.495Z,86.01
2022-12-26T11:03:36.308Z,86.50
2022-12-26T11:06:15.960Z,86.33
2022-12-26T11:08:10.381Z,87.06
2022-12-26T11:10:19.781Z,87.18
2022-12-26T11:12:34.959Z,86.79
2022-12-26T11:14:39.619Z,86.59
2022-12-26T11:16:42.752Z,86.91
2022-12-26T11:18:49.875Z,86.75
2022-12-26T11:20:52.449Z,87.13
2022-12-26T11:22:55.344Z,86.75
2022-12-26T11:25:20.963Z,87.25
2022-12-26T11:27:25.162Z,87.15
2022-12-26T11:29:27.728Z,86.65
2022-12-26T11:31:32.093Z,86.87
2022-12-26T11:33:37.853Z,86.81
2022-12-26T11:35:48.861Z,86.29
2022-12-26T11:37:55.115Z,85.97
2022-12-26T11:39:58.856Z,86.41
2022-12-26T11:42:10.813Z,85.44
2022-12-26T11:44:19.712Z,85.90
2022-12-26T11:46:23.640Z,84.06
2022-12-26T11:48:28.306Z,85.15
2022-12-26T11:50:32.090Z,85.59
2022-12-26T11:52:38.430Z,85.41
2022-12-26T11:54:49.810Z,84.17
2022-12-26T11:57:04.744Z,83.92
2022-12-26T11:59:18.858Z,83.41
2022-12-26T12:01:21.464Z,82.25
2022-12-26T12:03:33.777Z,80.89
2022-12-26T12:05:46.807Z,81.82
2022-12-26T12:08:10.170Z,81.63
2022-12-26T12:10:47.683Z,81.34
2022-12-26T12:12:57.275Z,82.32
2022-12-26T12:15:09.932Z,81.81
2022-12-26T12:17:26.422Z,81.21
2022-12-26T12:19:39.435Z,80.90
2022-12-26T12:21:44.920Z,80.46
2022-12-26T12:24:02.765Z,80.78
2022-12-26T12:26:12.150Z,80.55
2022-12-26T12:28:42.633Z,79.68
2022-12-26T12:30:53.144Z,80.87
2022-12-26T12:33:18.822Z,80.54
2022-12-26T12:35:38.937Z,80.57
2022-12-26T12:37:57.524Z,80.44
2022-12-26T12:40:05.929Z,80.62
2022-12-26T12:42:24.451Z,80.67
2022-12-26T12:44:51.447Z,79.04
2022-12-26T12:47:08.734Z,79.36
2022-12-26T12:49:31.425Z,79.22
2022-12-26T12:51:42.732Z,79.83
2022-12-26T12:54:23.578Z,80.38
2022-12-26T12:56:41.976Z,79.28
2022-12-26T12:58:55.326Z,78.93
2022-12-26T13:01:04.964Z,78.47
2022-12-26T13:03:12.062Z,78.79
2022-12-26T13:05:22.914Z,79.56
2022-12-26T13:07:31.883Z,78.15
2022-12-26T13:09:39.342Z,78.39
2022-12-26T13:11:46.779Z,78.70
2022-12-26T13:13:54.914Z,78.16
2022-12-26T13:16:04.178Z,77.15
2022-12-26T13:18:13.165Z,76.94
2022-12-26T13:20:21.012Z,77.47
2022-12-26T13:22:28.696Z,77.99
2022-12-26T13:24:35.653Z,78.06
2022-12-26T13:26:40.982Z,78.19
2022-12-26T13:28:55.507Z,77.86
2022-12-26T13:30:59.478Z,78.23
2022-12-26T13:33:02.109Z,76.71
2022-12-26T13:35:05.431Z,76.76
2022-12-26T13:37:46.425Z,76.77
2022-12-26T13:39:53.713Z,75.63
2022-12-26T13:42:17.204Z,74.88
2022-12-26T13:44:27.714Z,74.47
2022-12-26T13:46:55.148Z,75.30
2022-12-26T13:49:00.546Z,74.19
2022-12-26T13:51:05.981Z,74.63
2022-12-26T13:53:29.596Z,74.13
2022-12-26T13:55:44.289Z,74.42
2022-12-26T13:57:47.478Z,74.45
2022-12-26T14:00:07.005Z,74.10
2022-12-26T14:03:15.505Z,74.20
2022-12-26T14:05:15.795Z,73.32
2022-12-26T14:07:25.616Z,74.37
2022-12-26T14:09:45.065Z,74.49
2022-12-26T14:12:01.722Z,73.75
2022-12-26T14:14:13.941Z,73.69
2022-12-26T14:16:24.950Z,74.16
2022-12-26T14:18:44.856Z,74.47
2022-12-26T14:20:56.069Z,73.83
2022-12-26T14:23:10.725Z,73.89
2022-12-26T14:25:23.275Z,73.69
2022-12-26T14:27:35.019Z,73.58
2022-12-26T14:29:45.859Z,73.33
2022-12-26T14:32:15.031Z,72.52
2022-12-26T14:34:31.226Z,73.08
2022-12-26T14:36:40.908Z,72.79
2022-12-26T14:38:51.151Z,72.62
2022-12-26T14:41:03.510Z,72.70
2022-12-26T14:43:32.172Z,72.47
2022-12-26T14:45:46.851Z,72.82
2022-12-26T14:47:50.593Z,72.25
2022-12-26T14:49:56.871Z,71.59
2022-12-26T14:52:34.664Z,72.02
2022-12-26T14:54:43.046Z,70.79
2022-12-26T14:56:48.745Z,71.83
2022-12-26T14:58:52.018Z,71.65
2022-12-26T15:00:57.182Z,71.58
2022-12-26T15:03:34.281Z,71.48
2022-12-26T15:05:40.520Z,71.21
2022-12-26T15:08:24.734Z,70.20
2022-12-26T15:11:08.248Z,70.08
2022-12-26T15:13:33.608Z,69.70
2022-12-26T15:15:48.719Z,70.22
2022-12-26T15:18:11.591Z,70.08
2022-12-26T15:20:52.334Z,69.27
2022-12-26T15:23:37.443Z,69.50
2022-12-26T15:26:12.457Z,69.31
2022-12-26T15:28:53.983Z,69.19
2022-12-26T15:31:20.172Z,69.46
2022-12-26T15:33:32.784Z,68.90
2022-12-26T15:35:45.543Z,69.33
2022-12-26T15:38:11.210Z,69.37
2022-12-26T15:40:17.010Z,69.74
2022-12-26T15:42:30.363Z,70.22
2022-12-26T15:44:43.751Z,69.08
2022-12-26T15:46:56.418Z,69.53
2022-12-26T15:49:19.876Z,69.50
2022-12-26T15:51:32.591Z,69.77
2022-12-26T15:53:50.726Z,70.18
2022-12-26T15:56:07.862Z,70.12
2022-12-26T15:58:25.805Z,70.22
2022-12-26T16:00:31.820Z,69.89
2022-12-26T16:02:40.040Z,69.66
2022-12-26T16:04:47.761Z,69.67
2022-12-26T16:07:03.769Z,69.77
2022-12-26T16:09:33.281Z,70.42
2022-12-26T16:11:49.063Z,70.13
2022-12-26T16:13:58.126Z,70.21
2022-12-26T16:16:01.063Z,70.75
2022-12-26T16:18:15.133Z,71.09
2022-12-26T16:20:40.299Z,71.44
2022-12-26T16:22:46.979Z,71.74
2022-12-26T16:24:52.359Z,71.93
2022-12-26T16:26:55.834Z,71.44
2022-12-26T16:29:01.607Z,71.17
2022-12-26T16:31:05.738Z,71.30
2022-12-26T16:33:08.874Z,71.25
2022-12-26T16:35:19.830Z,72.17
2022-12-26T16:37:26.024Z,72.42
2022-12-26T16:39:28.614Z,71.91
2022-12-26T16:41:33.563Z,72.18
2022-12-26T16:43:36.228Z,71.49
2022-12-26T16:45:39.566Z,71.49
2022-12-26T16:47:42.325Z,71.98
2022-12-26T16:49:45.302Z,71.86
2022-12-26T16:51:50.330Z,72.05
2022-12-26T16:53:52.884Z,72.27
2022-12-26T16:55:58.292Z,72.60
2022-12-26T16:58:06.003Z,72.74
2022-12-26T17:00:18.122Z,72.32
2022-12-26T17:02:25.840Z,72.92
2022-12-26T17:04:30.525Z,72.63
2022-12-26T17:06:35.639Z,72.23
2022-12-26T17:08:43.429Z,72.95
2022-12-26T17:10:49.852Z,72.44
2022-12-26T17:12:53.512Z,72.36
2022-12-26T17:14:59.271Z,72.69
2022-12-26T17:17:04.995Z,72.93
2022-12-26T17:19:16.776Z,72.11
2022-12-26T17:21:23.946Z,72.08
2022-12-26T17:23:38.890Z,72.52
2022-12-26T17:25:45.608Z,72.25
2022-12-26T17:28:29.109Z,72.04
2022-12-26T17:30:33.639Z,72.43
2022-12-26T17:32:39.698Z,72.46
2022-12-26T17:34:42.917Z,72.60
2022-12-26T17:37:17.786Z,71.89
2022-12-26T17:39:12.807Z,71.82
2022-12-26T17:41:17.767Z,71.95
2022-12-26T17:43:24.477Z,72.66
2022-12-26T17:45:28.490Z,72.67
2022-12-26T17:47:32.435Z,72.39
2022-12-26T17:49:35.037Z,72.40
2022-12-26T17:51:37.611Z,71.92
2022-12-26T17:53:42.650Z,71.60
2022-12-26T17:55:45.249Z,71.57
2022-12-26T17:57:48.665Z,71.05
2022-12-26T17:59:52.531Z,71.57
2022-12-26T18:01:55.248Z,72.11
2022-12-26T18:03:59.222Z,71.41
2022-12-26T18:06:02.004Z,71.25
2022-12-26T18:08:05.172Z,71.27
2022-12-26T18:10:11.311Z,70.63
2022-12-26T18:12:14.695Z,70.89
2022-12-26T18:14:17.289Z,71.32
2022-12-26T18:16:24.968Z,71.30
2022-12-26T18:18:33.263Z,70.97
2022-12-26T18:20:37.229Z,70.55
2022-12-26T18:22:39.809Z,70.92
2022-12-26T18:24:43.003Z,71.23
2022-12-26T18:26:45.677Z,71.20
2022-12-26T18:28:49.927Z,70.92
2022-12-26T18:30:52.807Z,71.11
2022-12-26T18:32:55.789Z,71.01
2022-12-26T18:34:59.127Z,71.96
2022-12-26T18:37:03.021Z,72.50
2022-12-26T18:39:06.785Z,73.05
2022-12-26T18:41:14.873Z,72.69
2022-12-26T18:43:17.612Z,73.19
2022-12-26T18:45:20.291Z,73.77
2022-12-26T18:47:24.135Z,73.44
2022-12-26T18:49:27.607Z,75.04
2022-12-26T18:51:30.182Z,75.28
2022-12-26T18:53:34.054Z,76.34
2022-12-26T18:55:36.685Z,76.64
2022-12-26T18:57:40.378Z,76.25
2022-12-26T18:59:43.102Z,77.43
2022-12-26T19:01:45.827Z,77.89
2022-12-26T19:03:48.613Z,78.57
2022-12-26T19:05:51.160Z,78.58
2022-12-26T19:07:54.420Z,78.83
2022-12-26T19:10:00.761Z,78.17
2022-12-26T19:12:03.358Z,77.56
2022-12-26T19:14:08.156Z,77.78
2022-12-26T19:16:11.569Z,76.54
2022-12-26T19:18:14.557Z,77.52
2022-12-26T19:20:19.640Z,78.31
2022-12-26T19:22:22.235Z,76.51
2022-12-26T19:24:25.008Z,76.84
2022-12-26T19:26:28.981Z,76.52
2022-12-26T19:28:31.519Z,76.97
2022-12-26T19:30:38.706Z,78.07
2022-12-26T19:32:43.232Z,78.11
2022-12-26T19:34:45.880Z,78.02
2022-12-26T19:36:48.460Z,78.66
2022-12-26T19:38:53.667Z,78.79
2022-12-26T19:41:02.153Z,79.00
2022-12-26T19:43:06.132Z,79.32
2022-12-26T19:45:11.058Z,79.34
2022-12-26T19:47:13.684Z,79.43
2022-12-26T19:49:16.343Z,79.41
2022-12-26T19:51:19.591Z,79.54
2022-12-26T19:53:24.535Z,79.35
2022-12-26T19:55:28.435Z,79.42
2022-12-26T19:57:31.994Z,79.37
2022-12-26T19:59:36.152Z,79.47
2022-12-26T20:01:38.829Z,79.55
2022-12-26T20:03:42.573Z,79.60
2022-12-26T20:05:45.181Z,79.31
2022-12-26T20:07:47.830Z,79.13
2022-12-26T20:09:50.556Z,79.63
2022-12-26T20:11:54.043Z,79.40
2022-12-26T20:13:56.721Z,79.80
2022-12-26T20:16:03.546Z,79.88
2022-12-26T20:18:06.170Z,79.84
2022-12-26T20:20:09.641Z,80.19
2022-12-26T20:22:12.574Z,79.86
2022-12-26T20:24:15.433Z,79.76
2022-12-26T20:26:20.051Z,80.08
2022-12-26T20:28:22.731Z,80.75
2022-12-26T20:30:25.335Z,80.70
2022-12-26T20:32:29.337Z,80.67
2022-12-26T20:34:32.017Z,79.26
2022-12-26T20:36:36.507Z,77.78
2022-12-26T20:38:39.997Z,78.37
2022-12-26T20:40:49.739Z,75.74
2022-12-26T20:42:52.675Z,76.69
2022-12-26T20:44:55.426Z,77.39
2022-12-26T20:46:58.002Z,77.80
2022-12-26T20:49:02.517Z,77.53
2022-12-26T20:51:07.629Z,77.69
2022-12-26T20:53:10.304Z,78.10
2022-12-26T20:55:16.390Z,76.49
2022-12-26T20:57:18.978Z,77.47
2022-12-26T20:59:21.771Z,77.25
2022-12-26T21:01:24.428Z,76.14
2022-12-26T21:03:27.528Z,75.89
2022-12-26T21:05:31.529Z,76.87
2022-12-26T21:07:34.095Z,74.82
2022-12-26T21:09:40.990Z,74.66
2022-12-26T21:11:48.357Z,74.92
2022-12-26T21:13:52.986Z,74.99
2022-12-26T21:15:55.588Z,74.66
2022-12-26T21:17:58.235Z,74.97
2022-12-26T21:20:00.818Z,74.75
2022-12-26T21:22:04.823Z,74.16
2022-12-26T21:24:11.499Z,74.66
2022-12-26T21:26:14.605Z,73.94
2022-12-26T21:28:17.171Z,72.63
2022-12-26T21:30:19.780Z,73.40
2022-12-26T21:32:22.314Z,73.26
2022-12-26T21:34:27.281Z,73.90
2022-12-26T21:36:31.022Z,74.38
2022-12-26T21:38:34.217Z,74.13
2022-12-26T21:40:36.817Z,74.40
2022-12-26T21:42:39.433Z,74.43
2022-12-26T21:44:42.467Z,74.65
2022-12-26T21:46:45.084Z,73.69
2022-12-26T21:48:49.733Z,74.71
2022-12-26T21:50:52.368Z,73.56
2022-12-26T21:52:56.530Z,74.61
2022-12-26T21:55:21.921Z,73.74
2022-12-26T21:57:25.721Z,74.10
2022-12-26T21:59:46.129Z,73.97
2022-12-26T22:01:48.837Z,73.80
2022-12-26T22:04:18.342Z,74.32
2022-12-26T22:06:20.882Z,74.82
2022-12-26T22:08:23.566Z,75.37
2022-12-26T22:10:47.761Z,75.56
2022-12-26T22:13:00.439Z,75.84
2022-12-26T22:15:02.993Z,76.23
2022-12-26T22:17:08.572Z,76.30
2022-12-26T22:19:11.392Z,76.26
2022-12-26T22:21:15.873Z,76.48
2022-12-26T22:23:17.477Z,76.59
2022-12-26T22:25:20.682Z,76.81
2022-12-26T22:27:24.571Z,77.00
2022-12-26T22:29:27.144Z,77.35
2022-12-26T22:31:31.706Z,77.14
2022-12-26T22:33:34.751Z,77.39
2022-12-26T22:35:37.298Z,77.25
2022-12-26T22:37:39.898Z,77.41
2022-12-26T22:39:42.466Z,78.04
2022-12-26T22:41:45.620Z,78.08
2022-12-26T22:43:49.691Z,77.87
2022-12-26T22:45:52.544Z,77.94
2022-12-26T22:47:55.261Z,77.80
2022-12-26T22:49:57.852Z,77.70
2022-12-26T22:52:01.028Z,77.21
2022-12-26T22:54:03.620Z,77.18
2022-12-26T22:56:07.620Z,76.89
2022-12-26T22:58:10.164Z,76.68
2022-12-26T23:00:15.342Z,76.04
2022-12-26T23:02:20.428Z,75.52
2022-12-26T23:04:23.509Z,75.14
2022-12-26T23:06:29.316Z,74.49
2022-12-26T23:08:32.460Z,71.98
2022-12-26T23:10:36.168Z,71.93
2022-12-26T23:12:44.177Z,72.16
2022-12-26T23:14:47.037Z,71.50
2022-12-26T23:16:55.103Z,71.43
2022-12-26T23:19:14.789Z,72.08
2022-12-26T23:21:44.600Z,72.68
2022-12-26T23:23:47.728Z,73.20
2022-12-26T23:25:50.550Z,73.23
2022-12-26T23:28:10.990Z,72.81
2022-12-26T23:30:20.330Z,72.13
2022-12-26T23:32:24.226Z,72.92
2022-12-26T23:34:27.054Z,73.42
2022-12-26T23:36:29.643Z,73.67
2022-12-26T23:38:32.260Z,73.17
2022-12-26T23:40:34.847Z,73.67
2022-12-26T23:42:37.661Z,73.38
2022-12-26T23:44:40.265Z,73.35
2022-12-26T23:46:44.627Z,73.49
2022-12-26T23:48:51.016Z,72.88
2022-12-26T23:51:02.536Z,72.63
2022-12-26T23:53:05.293Z,73.41
2022-12-26T23:55:08.274Z,73.22
2022-12-26T23:57:10.834Z,72.84
2022-12-26T23:59:13.463Z,72.09
